Free Trial

SecureWorks (SCWX) Institutional Ownership

$7.27
-0.37 (-4.84%)
(As of 07/18/2024 ET)

Institutional Ownership Changes (13F Filings) for SecureWorks (NASDAQ:SCWX)

Current
Institutional Ownership
Percentage
14.38%
Number of
Institutional Buyers
(last 12 months)
13
Total
Institutional Inflows
(last 12 months)
$7.96M
Number of
Institutional Sellers
(last 12 months)
10
Total
Institutional Outflows
(last 12 months)
$1.07M
Get SCWX Insider Trade Alerts

Want to know when executives and insiders are buying or selling SecureWorks stock? Sign up for InsiderTrades.com's daily newsletter to get the latest insider transactions delivered to your inbox daily.

Skip Chart & View Institutional Buying and Selling Data

SCWX Institutional Buying and Selling by Quarter

SecureWorks Major Shareholders & Ownership History

Reporting DateMajor Shareholder NameShares HeldMarket Value% of PortfolioQuarterly Change in SharesOwnership in CompanyDetails
5/16/2024Jacobs Levy Equity Management Inc.52,791$355K0.0%-9.2%0.060%
5/14/2024Gagnon Securities LLC1,305,405$8.77M2.1%-0.6%1.479%
5/10/2024Vanguard Group Inc.1,040,890$7.00M0.0%-1.0%1.179%
5/9/2024First Eagle Investment Management LLC891,728$5.99M0.0%+1.5%1.010%
5/7/2024Cove Street Capital LLC638,626$4.29M1.4%-1.4%0.723%
5/6/2024Brooktree Capital Management163,910$1.10M0.8%+1.1%0.186%
5/1/2024BNP Paribas Financial Markets10,712$72K0.0%-29.5%0.012%
4/25/2024Horrell Capital Management Inc.582,878$3.92M1.1%+0.3%0.660%
4/19/2024Kovack Advisors Inc.207,400$1.39M0.2%+55.4%0.235%
2/15/2024Palogic Value Management L.P.243,000$1.79M0.8%+2.7%0.281%
2/14/2024Scalar Gauge Management LLC246,137$1.82M1.7%N/A0.285%
2/12/2024Cove Street Capital LLC647,795$4.78M1.5%-3.0%0.750%
2/8/2024First Eagle Investment Management LLC878,177$6.48M0.0%+4.2%1.017%
2/6/2024Y.D. More Investments Ltd24,963$184K0.0%+32.6%0.029%
2/5/2024Brooktree Capital Management162,135$1.20M1.0%-4.9%0.188%
2/2/2024Kovack Advisors Inc.133,500$985K0.1%+114.6%0.155%
1/31/2024Federated Hermes Inc.35,241$260K0.0%-10.9%0.041%
1/11/2024Horrell Capital Management Inc.580,878$4.29M1.3%-5.6%0.673%
12/6/2023Citigroup Inc.9,700$60K0.0%+95.3%0.011%
11/14/2023Quadrature Capital Ltd25,377$158K0.0%+56.6%0.029%
11/9/2023Cove Street Capital LLC667,567$3.98M1.3%+16.9%0.774%
11/8/2023First Eagle Investment Management LLC843,133$5.24M0.0%+19.2%0.978%
11/6/2023Brooktree Capital Management170,420$1.06M0.9%+4.8%0.198%
11/1/2023Horrell Capital Management Inc.615,554$3.82M1.3%+44.6%0.714%
10/30/2023Y.D. More Investments Ltd18,829$113K0.0%+38.2%0.022%
8/11/2023Cove Street Capital LLC571,173$4.13M1.3%-6.6%0.664%
8/8/2023Gagnon Advisors LLC744,444$5.38M3.6%+5.0%0.865%
8/8/2023Gagnon Securities LLC1,362,222$9.85M2.0%+5.5%1.583%
8/7/2023Royce & Associates LP1,000,212$7.23M0.1%-0.3%1.163%
7/25/2023Herald Investment Management Ltd250,000$1.80M0.3%+47.9%0.291%
7/25/2023DekaBank Deutsche Girozentrale26,850$190K0.0%-6.3%0.031%
7/24/2023Horrell Capital Management Inc.425,554$3.08M0.9%+15.5%0.495%
7/21/2023Kovack Advisors Inc.39,000$282K0.0%+47.7%0.045%
5/12/2023Palogic Value Management L.P.170,051$1.46M0.7%-15.0%0.198%
5/10/2023Oppenheimer Asset Management Inc.24,217$208K0.0%-21.8%0.028%
5/10/2023Connor Clark & Lunn Investment Management Ltd.45,991$394K0.0%-35.9%0.054%
5/9/2023Gladius Capital Management LP5,523$48K0.0%-64.0%0.006%
5/8/2023Brooktree Capital Management165,237$1.42M1.1%+16.3%0.193%
5/5/2023Cove Street Capital LLC611,367$5.24M1.6%-9.2%0.713%
5/5/2023Horrell Capital Management Inc.368,303$3.16M1.0%+2.1%0.430%
he’s your competitor in trading (Ad)

Want a preview of how elite traders think?! For a limited time, you can claim AI SMS alerts from TradeAlgo for FREE.

So, hurry and click here to claim your FREE SMS alerts now.
5/4/2023Herald Investment Management Ltd169,000$1.44M0.3%N/A0.197%
5/1/2023Migdal Insurance & Financial Holdings Ltd.40,494$337K0.0%+92.4%0.047%
4/21/2023Kovack Advisors Inc.26,400$226K0.0%-5.7%0.031%
4/13/2023Allspring Global Investments Holdings LLC5,707$49K0.0%-45.1%0.007%
4/10/2023Gagnon Advisors LLC708,994$6.08M4.1%+20.0%0.827%
4/10/2023Gagnon Securities LLC1,291,022$11.06M2.3%+25.9%1.506%
4/6/2023Parsec Financial Management Inc.18,017$154K0.0%N/A0.021%
3/23/2023ETF Managers Group LLC51,700$330K0.0%+3.1%0.061%
2/22/2023Kovack Advisors Inc.28,000$179K0.0%N/A0.033%
2/13/2023GSA Capital Partners LLP96,081$614K0.1%+56.2%0.114%
2/10/2023Cove Street Capital LLC673,167$4.30M1.2%+11.6%0.795%
2/10/2023Connor Clark & Lunn Investment Management Ltd.71,713$458K0.0%-15.0%0.085%
2/9/2023First Eagle Investment Management LLC378,105$2.42M0.0%+39.9%0.447%
2/9/2023Citigroup Inc.57,224$366K0.0%+13.0%0.068%
2/8/2023Russell Investments Group Ltd.8,390$54K0.0%+48.3%0.010%
2/7/2023Brooktree Capital Management142,112$908K0.7%+3.5%0.168%
2/7/2023Oppenheimer Asset Management Inc.30,974$198K0.0%-6.3%0.037%
2/2/2023Gladius Capital Management LP15,351$99K0.0%N/A0.018%
1/30/2023Horrell Capital Management Inc.360,803$2.31M0.8%-2.3%0.426%
11/15/2022ETF Managers Group LLC50,122$403K0.0%-80.9%0.059%
11/15/2022Federated Hermes Inc.321,418$2.59M0.0%+6.8%0.378%
11/14/2022Delphia USA Inc.19,406$156K0.2%-18.5%0.023%
11/14/2022Gagnon Securities LLC1,025,215$8.25M1.8%-0.8%1.207%
11/14/2022AXA S.A.50,560$407K0.0%+295.0%0.060%
11/10/2022Connor Clark & Lunn Investment Management Ltd.84,394$679K0.0%-11.3%0.099%
11/8/2022Eagle Asset Management Inc.156,864$1.26M0.0%+113.8%0.185%
11/8/2022Cove Street Capital LLC603,367$4.86M1.4%-8.2%0.710%
11/7/2022Brooktree Capital Management137,310$1.11M0.9%+14.1%0.162%
11/3/2022Royce & Associates LP780,588$6.28M0.1%+13.7%0.919%
10/31/2022Migdal Insurance & Financial Holdings Ltd.20,588$164K0.0%-66.7%0.024%
10/26/2022Allspring Global Investments Holdings LLC10,622$85K0.0%+81.4%0.013%
8/16/2022Corton Capital Inc.21,790$237K0.2%+35.2%0.026%
8/16/2022Delphia USA Inc.23,809$259K0.2%+113.7%0.028%
8/15/2022Partners Group Holding AG61,773$671K0.0%+137.0%0.073%
8/10/2022Gladius Capital Management LP36,318$395K0.0%N/A0.043%
8/10/2022Eagle Asset Management Inc.73,373$796K0.0%N/A0.086%
8/8/2022Brooktree Capital Management120,377$1.31M1.0%+40.3%0.142%
8/5/2022Connor Clark & Lunn Investment Management Ltd.95,172$1.03M0.0%+4.1%0.112%
8/4/2022Royce & Associates LP686,420$7.46M0.1%+3.8%0.809%
8/1/2022Gagnon Advisors LLC590,730$6.42M3.9%+26.1%0.696%
8/1/2022US Bancorp DE14,054$153K0.0%+60.0%0.017%
8/1/2022Gagnon Securities LLC1,033,446$11.22M2.4%+25.5%1.218%
7/26/2022Mirae Asset Global Investments Co. Ltd.353,021$3.83M0.0%+57.0%0.416%
7/26/2022Horrell Capital Management Inc.328,372$3.57M1.3%+32.2%0.387%
7/25/2022Allspring Global Investments Holdings LLC5,856$63K0.0%-85.7%0.007%
7/25/2022Strs Ohio17,600$191K0.0%+6.0%0.021%
7/12/2022FNY Investment Advisers LLC11,616$126K0.1%+20.8%0.014%
6/2/2022Mirae Asset Global Investments Co. Ltd.224,799$2.98M0.0%+16.8%0.266%
5/12/2022Connor Clark & Lunn Investment Management Ltd.91,434$1.21M0.0%+7.0%0.108%
5/12/2022Oppenheimer Asset Management Inc.33,334$442K0.0%+23.9%0.039%
Kiss of death from Joe Biden (Ad)

I did not consent. You did not consent. It’s in direct violation of the U.S. Constitution but Biden does not care.

I have uncovered a bombshell that changes everything… and threatens everything.
5/11/2022First Eagle Investment Management LLC160,863$2.13M0.0%+129.5%0.190%
5/11/2022William Blair Investment Management LLC110,928$1.47M0.0%N/A0.131%
5/11/2022GSA Capital Partners LLP17,241$228K0.0%N/A0.020%
5/10/2022Mirae Asset Global Investments Co. Ltd.224,799$2.98M0.0%+16.8%0.266%
5/9/2022Brooktree Capital Management85,776$1.14M0.7%N/A0.102%
5/6/2022Los Angeles Capital Management LLC22,194$294K0.0%+4.6%0.026%
5/6/2022State Board of Administration of Florida Retirement System11,457$152K0.0%-57.3%0.014%
5/5/2022Royce & Associates LP660,980$8.76M0.1%-12.3%0.783%
5/5/2022Russell Investments Group Ltd.7,483$99K0.0%-21.8%0.009%
5/2/2022Cove Street Capital LLC772,418$10.24M1.8%+20.3%0.914%
(Data available from 1/1/2016 forward)

SCWX Institutional Ownership - Frequently Asked Questions

Who are the largest shareholders of SCWX shares?

During the previous two years, 36 institutional investors and hedge funds held shares of SecureWorks. The most heavily invested institutionals were Gagnon Securities LLC ($8.77M), Royce & Associates LP ($7.23M), Vanguard Group Inc. ($7.00M), First Eagle Investment Management LLC ($5.99M), Gagnon Advisors LLC ($5.38M), Horrell Capital Management Inc. ($3.92M), and Mirae Asset Global Investments Co. Ltd. ($3.83M).Learn more on SCWX's institutional investors.

What percentage of SecureWorks stock is owned by institutional investors?

14.38% of SecureWorks stock is owned by institutional investors. Learn more on SCWX's institutional investor holdings.

Which institutional investors have been buying SecureWorks stock?

Of the 31 institutional investors that purchased SecureWorks stock in the last 24 months, the following investors and hedge funds have bought the highest volume of shares: Gagnon Securities LLC ($546.30K), Horrell Capital Management Inc. ($336.75K), First Eagle Investment Management LLC ($292.00K), Gagnon Advisors LLC ($275.85K), Herald Investment Management Ltd ($250K), Scalar Gauge Management LLC ($246.14K), and Kovack Advisors Inc. ($185.80K).

How much institutional buying is happening at SecureWorks?

Institutional investors have bought a total of 3,086,167 shares in the last 24 months. This purchase volume represents approximately $25.49M in transactions.

Which SecureWorks major shareholders have been selling company stock?

Of the 19 institutional investors that sold SecureWorks stock in the last 24 months, the following investors and hedge funds have sold the highest volume of shares: Cove Street Capital LLC ($589.52K), ETF Managers Group LLC ($212.05K), Connor Clark & Lunn Investment Management Ltd. ($49.18K), Horrell Capital Management Inc. ($43.30K), Migdal Insurance & Financial Holdings Ltd. ($41.18K), Allspring Global Investments Holdings LLC ($39.84K), and Palogic Value Management L.P. ($29.95K).

How much institutional selling is happening at SecureWorks?

Institutional investors have sold a total of 1,083,840 shares in the last 24 months. This volume of shares sold represents approximately $8.30M in transactions.


This page (NASDAQ:SCWX) was last updated on 7/18/2024 by MarketBeat.com Staff

From Our Partners